Time;durP1;ratioP1;P1;durP2;ratioP2;P2;SDS_P1;SDS_P2;PMS_P1;PMS_P2;Temp;Humidity;BMP_temperature;BMP_pressure;BME280_temperature;BME280_humidity;BME280_pressure;Samples;Min_cycle;Max_cycle;Signal;HPM_P1;HPM_P2
2023/04/07 00:00:08;;;;;;;4.70;2.03;;;;;;;;;;5010984;28;20080;-57
2023/04/07 00:02:34;;;;;;;4.35;1.80;;;;;;;;;;5010747;28;20033;-56
2023/04/07 00:05:01;;;;;;;4.18;2.00;;;;;;;;;;5010719;28;20026;-56
2023/04/07 00:07:27;;;;;;;5.68;2.08;;;;;;;;;;5010209;28;20446;-56
2023/04/07 00:09:53;;;;;;;4.60;1.92;;;;;;;;;;5010905;28;20149;-56
2023/04/07 00:12:19;;;;;;;4.60;1.92;;;;;;;;;;5011136;28;20026;-57
2023/04/07 00:14:45;;;;;;;4.15;2.08;;;;;;;;;;5010520;28;20069;-57
2023/04/07 00:17:11;;;;;;;4.63;1.83;;;;;;;;;;5010843;28;20026;-55
2023/04/07 00:19:37;;;;;;;4.57;2.03;;;;;;;;;;4992926;28;20426;-57
2023/04/07 00:22:03;;;;;;;8.35;2.00;;;;;;;;;;5010228;28;20032;-57
2023/04/07 00:24:29;;;;;;;4.30;1.80;;;;;;;;;;5010632;28;20054;-57
2023/04/07 00:26:55;;;;;;;4.53;1.58;;;;;;;;;;5014134;28;20058;-57
2023/04/07 00:29:22;;;;;;;5.32;1.52;;;;;;;;;;5014470;28;20030;-58
2023/04/07 00:31:48;;;;;;;4.25;1.83;;;;;;;;;;5014492;28;20030;-57
2023/04/07 00:34:14;;;;;;;5.55;1.73;;;;;;;;;;5014097;28;20022;-57
2023/04/07 00:36:40;;;;;;;3.72;1.75;;;;;;;;;;5013501;28;20586;-57
2023/04/07 00:39:06;;;;;;;2.63;1.65;;;;;;;;;;5014006;28;20105;-56
2023/04/07 00:41:34;;;;;;;3.25;1.60;;;;;;;;;;5013897;28;20029;-57
2023/04/07 00:44:00;;;;;;;4.03;1.65;;;;;;;;;;5013768;28;20568;-58
2023/04/07 00:46:26;;;;;;;4.20;1.95;;;;;;;;;;5013316;28;20033;-59
2023/04/07 00:48:52;;;;;;;4.38;1.63;;;;;;;;;;5013667;28;20033;-57
2023/04/07 00:51:23;;;;;;;4.03;1.55;;;;;;;;;;5014173;28;20029;-57
2023/04/07 00:53:49;;;;;;;6.20;2.17;;;;;;;;;;5014157;28;20026;-57
2023/04/07 00:56:15;;;;;;;4.40;1.83;;;;;;;;;;5013661;28;20088;-57
2023/04/07 00:58:41;;;;;;;4.80;1.80;;;;;;;;;;5013434;28;20021;-57
2023/04/07 01:01:11;;;;;;;4.20;1.98;;;;;;;;;;5013445;28;20116;-57
2023/04/07 01:03:52;;;;;;;4.22;1.60;;;;;;;;;;5013304;28;20053;-57
2023/04/07 01:06:20;;;;;;;5.18;1.83;;;;;;;;;;5013982;28;20367;-57
2023/04/07 01:08:53;;;;;;;4.72;1.63;;;;;;;;;;5012549;28;20037;-56
2023/04/07 01:11:24;;;;;;;4.25;1.73;;;;;;;;;;5013726;28;20030;-55
2023/04/07 01:13:50;;;;;;;4.03;1.70;;;;;;;;;;5013685;28;20022;-56
2023/04/07 01:16:20;;;;;;;5.15;1.90;;;;;;;;;;5013475;28;20041;-57
2023/04/07 01:18:48;;;;;;;2.83;1.83;;;;;;;;;;5013136;28;20033;-58
2023/04/07 01:21:16;;;;;;;4.28;1.73;;;;;;;;;;5013032;28;20383;-56
2023/04/07 01:23:54;;;;;;;3.10;1.58;;;;;;;;;;5013041;28;20364;-57
2023/04/07 01:26:25;;;;;;;3.65;1.48;;;;;;;;;;5013058;28;20041;-58
2023/04/07 01:28:51;;;;;;;3.58;1.90;;;;;;;;;;4993898;28;20526;-57
2023/04/07 01:31:18;;;;;;;4.60;1.77;;;;;;;;;;4993802;28;20030;-57
2023/04/07 01:33:45;;;;;;;2.55;1.20;;;;;;;;;;4993223;28;20054;-58
2023/04/07 01:36:11;;;;;;;3.40;1.83;;;;;;;;;;4992805;28;20479;-56
2023/04/07 01:38:38;;;;;;;4.45;1.60;;;;;;;;;;4992570;28;20023;-57
2023/04/07 01:41:05;;;;;;;7.07;1.80;;;;;;;;;;4993246;28;20026;-57
2023/04/07 01:43:32;;;;;;;3.85;1.63;;;;;;;;;;4992820;28;20054;-57
2023/04/07 01:45:58;;;;;;;3.83;1.70;;;;;;;;;;4993297;28;20482;-57
2023/04/07 01:48:24;;;;;;;3.55;1.80;;;;;;;;;;4993008;28;20026;-58
2023/04/07 01:50:51;;;;;;;3.60;1.60;;;;;;;;;;4993500;28;20035;-57
2023/04/07 01:53:17;;;;;;;3.28;1.73;;;;;;;;;;4993150;28;20030;-57
2023/04/07 01:55:43;;;;;;;4.43;1.80;;;;;;;;;;4992621;28;20041;-57
2023/04/07 01:58:09;;;;;;;5.55;1.90;;;;;;;;;;5011472;28;20029;-57
2023/04/07 02:00:35;;;;;;;3.63;1.63;;;;;;;;;;5012352;28;20057;-56
2023/04/07 02:03:06;;;;;;;3.17;1.25;;;;;;;;;;5012464;28;20030;-57
2023/04/07 02:05:35;;;;;;;3.58;1.70;;;;;;;;;;5012284;28;20065;-57
2023/04/07 02:08:03;;;;;;;2.78;1.65;;;;;;;;;;5012263;28;20375;-56
2023/04/07 02:10:29;;;;;;;3.67;1.40;;;;;;;;;;5012136;28;20500;-57
2023/04/07 02:12:56;;;;;;;4.43;1.50;;;;;;;;;;5011870;28;20026;-56
2023/04/07 02:15:23;;;;;;;3.58;1.70;;;;;;;;;;5012222;28;20022;-57
2023/04/07 02:17:51;;;;;;;3.42;1.58;;;;;;;;;;5012522;28;20029;-57
2023/04/07 02:20:17;;;;;;;4.20;1.83;;;;;;;;;;5012409;28;20030;-57
2023/04/07 02:22:44;;;;;;;3.55;1.77;;;;;;;;;;5011315;28;20030;-57
2023/04/07 02:25:23;;;;;;;3.00;1.50;;;;;;;;;;5012129;28;20030;-56
2023/04/07 02:27:50;;;;;;;2.80;1.38;;;;;;;;;;5012353;28;20046;-57
2023/04/07 02:30:16;;;;;;;3.28;1.40;;;;;;;;;;5012102;28;20032;-57
2023/04/07 02:32:42;;;;;;;2.53;1.33;;;;;;;;;;5011846;28;20521;-57
2023/04/07 02:35:08;;;;;;;4.32;1.55;;;;;;;;;;5011899;28;20034;-57
2023/04/07 02:37:34;;;;;;;4.38;1.40;;;;;;;;;;5011219;28;20025;-57
2023/04/07 02:40:00;;;;;;;3.25;1.50;;;;;;;;;;5012017;28;20041;-56
2023/04/07 02:42:26;;;;;;;2.55;1.52;;;;;;;;;;5011495;28;20033;-58
2023/04/07 02:44:52;;;;;;;4.47;1.70;;;;;;;;;;5011985;28;20150;-57
2023/04/07 02:47:18;;;;;;;2.58;1.20;;;;;;;;;;5012026;28;20038;-57
2023/04/07 02:49:44;;;;;;;2.40;1.38;;;;;;;;;;5011310;28;20030;-57
2023/04/07 02:52:10;;;;;;;2.65;1.25;;;;;;;;;;5011141;28;20034;-57
2023/04/07 02:54:36;;;;;;;2.80;1.50;;;;;;;;;;5011361;28;20401;-57
2023/04/07 02:57:02;;;;;;;3.45;1.50;;;;;;;;;;5011556;28;20064;-56
2023/04/07 02:59:28;;;;;;;2.83;1.38;;;;;;;;;;5011364;28;20072;-56
2023/04/07 03:01:54;;;;;;;4.10;1.70;;;;;;;;;;5011441;28;20030;-56
2023/04/07 03:04:21;;;;;;;4.53;1.58;;;;;;;;;;5011622;28;20029;-57
2023/04/07 03:06:46;;;;;;;4.50;1.40;;;;;;;;;;5010830;28;20026;-56
2023/04/07 03:09:13;;;;;;;2.47;1.38;;;;;;;;;;5011451;28;20033;-56
2023/04/07 03:11:40;;;;;;;1.83;1.15;;;;;;;;;;5011259;28;20022;-56
2023/04/07 03:14:06;;;;;;;2.83;1.60;;;;;;;;;;5011452;28;20107;-56
2023/04/07 03:16:32;;;;;;;4.32;1.75;;;;;;;;;;5010637;28;20502;-57
2023/04/07 03:18:58;;;;;;;3.22;1.42;;;;;;;;;;5011227;28;20049;-56
2023/04/07 03:21:24;;;;;;;3.38;1.30;;;;;;;;;;5011100;28;20053;-56
2023/04/07 03:23:50;;;;;;;3.13;1.30;;;;;;;;;;5011537;28;20026;-57
2023/04/07 03:26:16;;;;;;;2.63;1.38;;;;;;;;;;5011337;28;20457;-56
2023/04/07 03:28:42;;;;;;;2.78;1.50;;;;;;;;;;5010980;28;20041;-57
2023/04/07 03:31:08;;;;;;;2.55;1.38;;;;;;;;;;5010977;28;20026;-59
2023/04/07 03:33:34;;;;;;;2.70;1.65;;;;;;;;;;5010868;28;20395;-57
2023/04/07 03:36:00;;;;;;;3.90;1.20;;;;;;;;;;5011222;28;20069;-57
2023/04/07 03:38:26;;;;;;;3.10;1.50;;;;;;;;;;5011088;28;20058;-57
2023/04/07 03:40:52;;;;;;;2.60;1.60;;;;;;;;;;5011084;28;20030;-57
2023/04/07 03:43:18;;;;;;;3.38;1.40;;;;;;;;;;5011308;28;20117;-57
2023/04/07 03:45:44;;;;;;;2.33;1.27;;;;;;;;;;5010574;28;20099;-56
2023/04/07 03:48:11;;;;;;;2.30;1.20;;;;;;;;;;5011062;28;20360;-57
2023/04/07 03:50:39;;;;;;;2.78;1.48;;;;;;;;;;5010966;28;20109;-56
2023/04/07 03:53:05;;;;;;;3.60;1.50;;;;;;;;;;5010981;28;20429;-56
2023/04/07 03:55:31;;;;;;;2.97;1.30;;;;;;;;;;5010574;28;20045;-57
2023/04/07 03:57:57;;;;;;;2.33;1.17;;;;;;;;;;5011023;28;20064;-56
2023/04/07 04:00:23;;;;;;;1.95;1.20;;;;;;;;;;5011650;28;20104;-56
2023/04/07 04:02:49;;;;;;;2.60;1.60;;;;;;;;;;5014771;28;20474;-56
2023/04/07 04:05:15;;;;;;;3.38;1.52;;;;;;;;;;5014439;28;20470;-56
2023/04/07 04:07:41;;;;;;;2.47;1.30;;;;;;;;;;5014410;28;20029;-56
2023/04/07 04:10:07;;;;;;;2.05;1.17;;;;;;;;;;5014694;28;20026;-55
2023/04/07 04:12:33;;;;;;;3.17;1.25;;;;;;;;;;4996369;28;20033;-56
2023/04/07 04:14:59;;;;;;;2.92;1.50;;;;;;;;;;5014526;28;20041;-54
2023/04/07 04:17:25;;;;;;;2.97;1.50;;;;;;;;;;5014172;28;20471;-54
2023/04/07 04:19:53;;;;;;;2.65;1.42;;;;;;;;;;5014403;28;20033;-56
2023/04/07 04:22:19;;;;;;;2.47;1.40;;;;;;;;;;5014751;28;20044;-55
2023/04/07 04:24:45;;;;;;;2.65;1.25;;;;;;;;;;5014147;28;20025;-56
2023/04/07 04:27:11;;;;;;;3.17;1.30;;;;;;;;;;5014291;28;20479;-57
2023/04/07 04:29:37;;;;;;;2.70;1.50;;;;;;;;;;5014001;28;20040;-55
2023/04/07 04:32:03;;;;;;;4.40;1.48;;;;;;;;;;5014073;28;20482;-56
2023/04/07 04:34:29;;;;;;;4.22;1.38;;;;;;;;;;5013356;28;20037;-56
2023/04/07 04:36:55;;;;;;;4.78;1.60;;;;;;;;;;5013994;28;20462;-54
2023/04/07 04:39:21;;;;;;;3.38;1.42;;;;;;;;;;5014327;28;20101;-56
2023/04/07 04:41:47;;;;;;;3.35;1.70;;;;;;;;;;5013882;28;20026;-59
2023/04/07 04:44:13;;;;;;;2.58;1.15;;;;;;;;;;5013386;28;20057;-56
2023/04/07 04:46:39;;;;;;;3.83;1.70;;;;;;;;;;5013575;28;20017;-55
2023/04/07 04:49:05;;;;;;;5.63;1.45;;;;;;;;;;5013785;28;20025;-56
2023/04/07 04:51:31;;;;;;;3.10;1.27;;;;;;;;;;5013605;28;20018;-56
2023/04/07 04:53:57;;;;;;;4.35;1.38;;;;;;;;;;5013780;28;20084;-56
2023/04/07 04:56:24;;;;;;;4.15;1.42;;;;;;;;;;5013337;28;20034;-55
2023/04/07 04:58:50;;;;;;;2.13;1.23;;;;;;;;;;5013389;28;20493;-55
2023/04/07 05:01:16;;;;;;;3.17;1.90;;;;;;;;;;5013337;28;20026;-56
2023/04/07 05:03:42;;;;;;;2.67;1.40;;;;;;;;;;5013362;28;20760;-57
2023/04/07 05:06:08;;;;;;;2.63;1.33;;;;;;;;;;5013601;28;20022;-56
2023/04/07 05:08:34;;;;;;;2.67;1.90;;;;;;;;;;5013271;28;20461;-56
2023/04/07 05:11:00;;;;;;;1.75;1.23;;;;;;;;;;5012214;28;20033;-54
2023/04/07 05:13:26;;;;;;;3.05;1.55;;;;;;;;;;5013277;28;20030;-55
2023/04/07 05:15:52;;;;;;;2.38;1.17;;;;;;;;;;5013392;28;20034;-57
2023/04/07 05:18:18;;;;;;;3.33;1.50;;;;;;;;;;5012301;28;20053;-56
2023/04/07 05:20:44;;;;;;;3.35;1.63;;;;;;;;;;5013126;28;20446;-58
2023/04/07 05:23:10;;;;;;;3.75;1.90;;;;;;;;;;5013358;28;20018;-57
2023/04/07 05:25:36;;;;;;;5.18;1.55;;;;;;;;;;5008286;28;20045;-55
2023/04/07 05:28:03;;;;;;;3.20;1.65;;;;;;;;;;5012622;28;20483;-59
2023/04/07 05:30:29;;;;;;;3.95;1.80;;;;;;;;;;5012450;28;20034;-56
2023/04/07 05:32:55;;;;;;;3.17;1.30;;;;;;;;;;5012346;28;20029;-59
2023/04/07 05:35:21;;;;;;;4.40;1.30;;;;;;;;;;5001193;28;20038;-57
2023/04/07 05:37:47;;;;;;;4.15;1.30;;;;;;;;;;4993451;28;20030;-56
2023/04/07 05:40:13;;;;;;;8.30;2.03;;;;;;;;;;5011566;28;20079;-58
2023/04/07 05:42:39;;;;;;;4.68;1.85;;;;;;;;;;5012460;28;20038;-58
2023/04/07 05:45:05;;;;;;;4.43;1.75;;;;;;;;;;5019894;28;20060;-59
2023/04/07 05:47:31;;;;;;;6.78;1.85;;;;;;;;;;5012804;28;20405;-58
2023/04/07 05:49:57;;;;;;;7.57;2.15;;;;;;;;;;5012214;28;20021;-58
2023/04/07 05:52:23;;;;;;;3.60;1.73;;;;;;;;;;5012197;28;20022;-55
2023/04/07 05:54:49;;;;;;;3.55;1.70;;;;;;;;;;5012770;28;20091;-54
2023/04/07 05:57:15;;;;;;;3.75;1.90;;;;;;;;;;5012362;28;20026;-56
2023/04/07 05:59:41;;;;;;;3.17;1.55;;;;;;;;;;5012426;28;20545;-55
2023/04/07 06:02:07;;;;;;;11.50;2.10;;;;;;;;;;5027678;28;20100;-56
2023/04/07 06:04:34;;;;;;;3.92;1.65;;;;;;;;;;5007957;28;20026;-56
2023/04/07 06:07:01;;;;;;;7.05;2.10;;;;;;;;;;5011955;28;20073;-57
2023/04/07 06:09:27;;;;;;;7.30;2.00;;;;;;;;;;4998908;28;20114;-57
2023/04/07 06:11:53;;;;;;;8.73;2.17;;;;;;;;;;4992775;28;20026;-54
2023/04/07 06:14:19;;;;;;;6.07;1.80;;;;;;;;;;5012451;28;20125;-51
2023/04/07 06:16:45;;;;;;;4.43;2.20;;;;;;;;;;5011605;28;20069;-55
2023/04/07 06:19:11;;;;;;;5.40;2.08;;;;;;;;;;5011778;28;20391;-59
2023/04/07 06:21:38;;;;;;;6.60;1.90;;;;;;;;;;5011566;28;20057;-55
2023/04/07 06:24:05;;;;;;;6.20;2.08;;;;;;;;;;5011041;28;20034;-55
2023/04/07 06:26:31;;;;;;;6.03;1.75;;;;;;;;;;5002743;28;20034;-53
2023/04/07 06:28:57;;;;;;;3.35;1.90;;;;;;;;;;5009256;28;20026;-54
2023/04/07 06:31:24;;;;;;;4.97;2.05;;;;;;;;;;5011569;28;20398;-55
2023/04/07 06:33:51;;;;;;;8.10;1.80;;;;;;;;;;5012377;28;20030;-55
2023/04/07 06:36:17;;;;;;;4.15;1.60;;;;;;;;;;5020461;28;20184;-53
2023/04/07 06:38:43;;;;;;;3.55;1.73;;;;;;;;;;5010709;28;20057;-55
2023/04/07 06:41:15;;;;;;;3.47;1.55;;;;;;;;;;5011157;28;20022;-57
2023/04/07 06:43:41;;;;;;;4.57;1.80;;;;;;;;;;5010653;28;20682;-56
2023/04/07 06:46:07;;;;;;;8.48;1.98;;;;;;;;;;4999644;28;20026;-55
2023/04/07 06:48:33;;;;;;;4.70;1.85;;;;;;;;;;5011047;28;20030;-56
2023/04/07 06:50:59;;;;;;;6.60;1.88;;;;;;;;;;5011347;28;20026;-54
2023/04/07 06:53:25;;;;;;;3.45;1.63;;;;;;;;;;5010753;28;20128;-54
2023/04/07 06:55:51;;;;;;;3.70;1.52;;;;;;;;;;5011346;28;20080;-53
2023/04/07 06:58:17;;;;;;;2.47;1.25;;;;;;;;;;5011317;28;20064;-56
2023/04/07 07:00:43;;;;;;;4.75;1.20;;;;;;;;;;5010849;28;20034;-57
2023/04/07 07:03:09;;;;;;;3.22;1.20;;;;;;;;;;5009780;28;20052;-58
2023/04/07 07:05:35;;;;;;;3.13;1.23;;;;;;;;;;5010780;28;20080;-56
2023/04/07 07:08:01;;;;;;;4.30;1.45;;;;;;;;;;5000872;28;20018;-57
2023/04/07 07:10:27;;;;;;;4.18;1.83;;;;;;;;;;4991720;28;20038;-57
2023/04/07 07:12:53;;;;;;;4.78;1.73;;;;;;;;;;5008707;28;20014;-54
2023/04/07 07:15:19;;;;;;;4.03;1.40;;;;;;;;;;5011764;28;20036;-59
2023/04/07 07:17:45;;;;;;;3.92;1.60;;;;;;;;;;5011069;28;20029;-54
2023/04/07 07:20:11;;;;;;;8.05;1.98;;;;;;;;;;5011121;28;20022;-54
2023/04/07 07:22:37;;;;;;;2.58;1.40;;;;;;;;;;5011252;28;20022;-57
2023/04/07 07:25:03;;;;;;;3.88;1.80;;;;;;;;;;5011480;28;20112;-57
2023/04/07 07:27:29;;;;;;;3.85;1.50;;;;;;;;;;5011177;28;20416;-55
2023/04/07 07:29:55;;;;;;;3.45;1.30;;;;;;;;;;5011423;28;20030;-52
2023/04/07 07:32:21;;;;;;;2.70;1.58;;;;;;;;;;5011678;28;20076;-57
2023/04/07 07:34:47;;;;;;;2.80;1.55;;;;;;;;;;5013162;28;20029;-57
2023/04/07 07:37:13;;;;;;;2.78;1.25;;;;;;;;;;5019324;28;20033;-58
2023/04/07 07:39:39;;;;;;;2.78;1.52;;;;;;;;;;5023624;28;20018;-57
2023/04/07 07:42:05;;;;;;;5.88;1.52;;;;;;;;;;5022427;28;20026;-57
2023/04/07 07:44:31;;;;;;;2.55;1.20;;;;;;;;;;5024015;28;20443;-57
2023/04/07 07:46:57;;;;;;;3.50;1.30;;;;;;;;;;5022060;28;20026;-59
2023/04/07 07:49:23;;;;;;;3.65;1.33;;;;;;;;;;5021138;28;20428;-55
2023/04/07 07:51:49;;;;;;;4.85;1.60;;;;;;;;;;5024568;28;20013;-57
2023/04/07 07:54:15;;;;;;;5.25;1.40;;;;;;;;;;5024809;28;20029;-55
2023/04/07 07:56:41;;;;;;;5.00;1.63;;;;;;;;;;5011638;28;20045;-56
2023/04/07 07:59:07;;;;;;;6.30;1.48;;;;;;;;;;5017925;28;20026;-56
2023/04/07 08:01:33;;;;;;;4.63;1.85;;;;;;;;;;5022036;28;20025;-56
2023/04/07 08:03:59;;;;;;;11.05;1.80;;;;;;;;;;5023853;28;20109;-56
2023/04/07 08:06:25;;;;;;;5.80;1.60;;;;;;;;;;5023335;28;20022;-56
2023/04/07 08:08:51;;;;;;;3.25;1.20;;;;;;;;;;5022065;28;20080;-55
2023/04/07 08:11:17;;;;;;;4.35;1.60;;;;;;;;;;5023138;28;20084;-54
2023/04/07 08:13:45;;;;;;;5.80;1.55;;;;;;;;;;5022573;28;20017;-55
2023/04/07 08:16:11;;;;;;;6.70;1.42;;;;;;;;;;5023889;28;20074;-54
2023/04/07 08:18:37;;;;;;;2.97;1.10;;;;;;;;;;5020899;28;20056;-55
2023/04/07 08:21:06;;;;;;;5.32;1.77;;;;;;;;;;5022712;28;20022;-54
2023/04/07 08:23:32;;;;;;;2.78;1.17;;;;;;;;;;5021652;28;20064;-56
2023/04/07 08:25:58;;;;;;;3.08;1.23;;;;;;;;;;5023498;28;20025;-54
2023/04/07 08:28:25;;;;;;;4.53;1.50;;;;;;;;;;5022624;28;20022;-53
2023/04/07 08:30:51;;;;;;;3.20;1.48;;;;;;;;;;5031176;28;20087;-55
2023/04/07 08:33:17;;;;;;;4.65;1.77;;;;;;;;;;5022635;28;20025;-55
2023/04/07 08:35:43;;;;;;;2.33;1.17;;;;;;;;;;5022019;28;20548;-58
2023/04/07 08:38:09;;;;;;;5.30;1.42;;;;;;;;;;5023246;28;20030;-55
2023/04/07 08:40:35;;;;;;;3.15;1.48;;;;;;;;;;5019250;28;20498;-56
2023/04/07 08:43:05;;;;;;;6.45;1.20;;;;;;;;;;5022178;28;20049;-55
2023/04/07 08:45:31;;;;;;;5.88;1.27;;;;;;;;;;5020723;28;20034;-56
2023/04/07 08:47:59;;;;;;;3.22;1.30;;;;;;;;;;5028595;28;20029;-56
2023/04/07 08:50:27;;;;;;;6.45;1.40;;;;;;;;;;5020708;28;20069;-57
2023/04/07 08:52:55;;;;;;;4.45;1.15;;;;;;;;;;4997660;28;20018;-58
2023/04/07 08:55:21;;;;;;;4.55;1.63;;;;;;;;;;5018132;28;20033;-57
2023/04/07 08:57:47;;;;;;;3.15;1.48;;;;;;;;;;5013461;28;20111;-57
2023/04/07 09:00:14;;;;;;;4.18;1.50;;;;;;;;;;5012256;28;20112;-60
2023/04/07 09:02:44;;;;;;;7.35;1.90;;;;;;;;;;5003878;28;20500;-56
2023/04/07 09:05:13;;;;;;;2.08;1.10;;;;;;;;;;5012394;28;20553;-56
2023/04/07 09:07:39;;;;;;;3.67;1.30;;;;;;;;;;5018699;28;20029;-58
2023/04/07 09:10:05;;;;;;;5.85;1.70;;;;;;;;;;5017049;28;20065;-55
2023/04/07 09:12:32;;;;;;;8.02;1.73;;;;;;;;;;4995119;28;20029;-58
2023/04/07 09:14:58;;;;;;;3.60;1.63;;;;;;;;;;5013469;28;20077;-56
2023/04/07 09:17:27;;;;;;;4.82;1.52;;;;;;;;;;5013087;28;20569;-57
2023/04/07 09:19:57;;;;;;;5.90;1.27;;;;;;;;;;5012235;28;20061;-58
2023/04/07 09:22:35;;;;;;;3.58;1.33;;;;;;;;;;5012228;28;20033;-58
2023/04/07 09:25:18;;;;;;;3.45;1.77;;;;;;;;;;5013319;28;20076;-60
2023/04/07 09:27:53;;;;;;;6.97;1.90;;;;;;;;;;5012888;28;20030;-58
2023/04/07 09:30:19;;;;;;;;;;;;;;;;;;5014054;28;20030;-58
2023/04/07 09:32:45;;;;;;;3.75;1.60;;;;;;;;;;5012878;28;19906;-58
2023/04/07 09:35:11;;;;;;;2.65;1.00;;;;;;;;;;5011966;28;20057;-58
2023/04/07 09:37:37;;;;;;;4.90;1.52;;;;;;;;;;5012905;28;20385;-58
2023/04/07 09:40:04;;;;;;;3.10;1.42;;;;;;;;;;5013037;28;20393;-58
2023/04/07 09:42:31;;;;;;;5.07;1.58;;;;;;;;;;5012594;28;20064;-58
2023/04/07 09:44:58;;;;;;;2.45;1.60;;;;;;;;;;5012862;28;20030;-58
2023/04/07 09:47:30;;;;;;;5.30;1.50;;;;;;;;;;5012816;28;20117;-58
2023/04/07 09:49:58;;;;;;;3.90;1.42;;;;;;;;;;5012882;28;20026;-58
2023/04/07 09:52:46;;;;;;;3.40;1.63;;;;;;;;;;5012401;28;20406;-60
2023/04/07 09:55:13;;;;;;;3.08;1.50;;;;;;;;;;5012619;28;20108;-58
2023/04/07 09:57:40;;;;;;;6.30;2.47;;;;;;;;;;5011519;28;20126;-59
2023/04/07 10:00:07;;;;;;;3.92;2.00;;;;;;;;;;4995162;28;20026;-58
2023/04/07 10:02:33;;;;;;;6.18;2.33;;;;;;;;;;5012438;28;20058;-58
2023/04/07 10:04:59;;;;;;;3.58;1.98;;;;;;;;;;5012586;28;20030;-58
2023/04/07 10:07:26;;;;;;;4.95;2.35;;;;;;;;;;5012261;28;20022;-58
2023/04/07 10:09:52;;;;;;;3.15;1.70;;;;;;;;;;5012724;28;20441;-58
2023/04/07 10:12:18;;;;;;;4.00;1.92;;;;;;;;;;5012797;28;20052;-60
2023/04/07 10:14:45;;;;;;;6.38;2.28;;;;;;;;;;5012158;28;20144;-60
2023/04/07 10:17:13;;;;;;;2.80;1.60;;;;;;;;;;5012384;28;20538;-60
2023/04/07 10:19:39;;;;;;;6.57;2.53;;;;;;;;;;5012041;28;20030;-60
2023/04/07 10:22:06;;;;;;;3.88;2.40;;;;;;;;;;5012108;28;20083;-60
2023/04/07 10:24:35;;;;;;;4.72;1.88;;;;;;;;;;5012085;28;20026;-60
2023/04/07 10:27:03;;;;;;;3.88;2.10;;;;;;;;;;5012135;28;20057;-60
2023/04/07 10:29:34;;;;;;;4.68;2.30;;;;;;;;;;5011934;28;20025;-60
2023/04/07 10:32:01;;;;;;;3.40;2.40;;;;;;;;;;5012118;28;20070;-60
2023/04/07 10:34:46;;;;;;;5.05;2.80;;;;;;;;;;5011785;28;20026;-60
2023/04/07 10:37:13;;;;;;;4.45;2.45;;;;;;;;;;5012016;28;20034;-59
2023/04/07 10:39:39;;;;;;;3.58;2.25;;;;;;;;;;5011803;28;20080;-60
2023/04/07 10:42:05;;;;;;;3.95;2.30;;;;;;;;;;4994055;28;20022;-60
2023/04/07 10:44:40;;;;;;;3.92;2.10;;;;;;;;;;5011740;28;20080;-60
2023/04/07 10:47:07;;;;;;;4.68;1.92;;;;;;;;;;5011966;28;20453;-58
2023/04/07 10:49:34;;;;;;;3.63;2.03;;;;;;;;;;5011413;28;20073;-60
2023/04/07 10:52:12;;;;;;;4.35;2.17;;;;;;;;;;5011890;28;20169;-60
2023/04/07 10:54:38;;;;;;;4.22;2.25;;;;;;;;;;5011333;28;20029;-60
2023/04/07 10:57:06;;;;;;;4.15;2.65;;;;;;;;;;5011698;28;20030;-60
2023/04/07 10:59:33;;;;;;;6.70;2.53;;;;;;;;;;5011323;28;20034;-58
2023/04/07 11:02:19;;;;;;;4.40;2.15;;;;;;;;;;5011785;28;20030;-59
2023/04/07 11:04:46;;;;;;;5.65;2.15;;;;;;;;;;5001269;28;20045;-60
2023/04/07 11:07:13;;;;;;;5.32;2.20;;;;;;;;;;5011431;28;20101;-60
2023/04/07 11:09:42;;;;;;;4.05;2.10;;;;;;;;;;5011081;28;20026;-60
2023/04/07 11:12:08;;;;;;;3.97;2.15;;;;;;;;;;5011544;28;20389;-60
2023/04/07 11:14:39;;;;;;;3.33;1.92;;;;;;;;;;5011294;28;20033;-60
2023/04/07 11:17:07;;;;;;;4.15;2.08;;;;;;;;;;5011431;28;20034;-60
2023/04/07 11:19:50;;;;;;;3.38;2.20;;;;;;;;;;5011080;28;20474;-60
2023/04/07 11:22:16;;;;;;;3.70;1.92;;;;;;;;;;5011357;28;20026;-60
2023/04/07 11:24:43;;;;;;;5.95;2.10;;;;;;;;;;5011129;28;20030;-60
2023/04/07 11:27:13;;;;;;;2.95;1.75;;;;;;;;;;5011365;28;20041;-60
2023/04/07 11:29:39;;;;;;;3.25;1.70;;;;;;;;;;5011176;28;20046;-57
2023/04/07 11:32:05;;;;;;;2.45;2.03;;;;;;;;;;5011237;28;20030;-60
2023/04/07 11:34:31;;;;;;;3.40;1.80;;;;;;;;;;5011071;28;20397;-60
2023/04/07 11:36:58;;;;;;;3.00;1.90;;;;;;;;;;5010933;28;20397;-60
2023/04/07 11:39:32;;;;;;;3.80;2.03;;;;;;;;;;5011088;28;20025;-60
2023/04/07 11:41:58;;;;;;;4.35;1.80;;;;;;;;;;5011363;28;20030;-59
2023/04/07 11:44:25;;;;;;;3.83;1.95;;;;;;;;;;5011044;28;20033;-60
2023/04/07 11:46:57;;;;;;;3.50;2.08;;;;;;;;;;5011498;28;20496;-58
2023/04/07 11:49:24;;;;;;;3.58;1.90;;;;;;;;;;5010828;28;20027;-60
2023/04/07 11:52:01;;;;;;;5.38;2.10;;;;;;;;;;5011618;28;20040;-60
2023/04/07 11:54:27;;;;;;;3.95;2.08;;;;;;;;;;5010965;28;20030;-60
2023/04/07 11:56:54;;;;;;;3.08;1.75;;;;;;;;;;5011144;28;20441;-60
2023/04/07 11:59:24;;;;;;;4.07;1.95;;;;;;;;;;5011282;28;20026;-60
2023/04/07 12:01:51;;;;;;;6.47;1.90;;;;;;;;;;5011236;28;20497;-60
2023/04/07 12:04:17;;;;;;;3.70;1.92;;;;;;;;;;5011417;28;20022;-60
2023/04/07 12:06:44;;;;;;;3.35;1.92;;;;;;;;;;5010824;28;20026;-60
2023/04/07 12:09:28;;;;;;;3.45;1.70;;;;;;;;;;5010852;28;20036;-60
2023/04/07 12:11:54;;;;;;;2.72;1.80;;;;;;;;;;5011037;28;20121;-60
2023/04/07 12:14:20;;;;;;;5.15;2.00;;;;;;;;;;4993336;28;20030;-60
2023/04/07 12:16:46;;;;;;;4.25;2.22;;;;;;;;;;5010558;28;20038;-60
2023/04/07 12:19:12;;;;;;;2.88;1.50;;;;;;;;;;5011043;28;20076;-60
2023/04/07 12:21:38;;;;;;;3.33;1.80;;;;;;;;;;5011915;28;20432;-60
2023/04/07 12:24:04;;;;;;;2.28;1.67;;;;;;;;;;5014482;28;20025;-60
2023/04/07 12:26:30;;;;;;;3.25;1.60;;;;;;;;;;5013998;28;20065;-60
2023/04/07 12:28:57;;;;;;;3.28;1.70;;;;;;;;;;5014325;28;20164;-60
2023/04/07 12:31:24;;;;;;;3.42;1.92;;;;;;;;;;5014173;28;20033;-60
2023/04/07 12:33:50;;;;;;;2.70;1.58;;;;;;;;;;5014421;28;20033;-59
2023/04/07 12:36:16;;;;;;;4.32;1.85;;;;;;;;;;5014129;28;20390;-60
2023/04/07 12:38:42;;;;;;;2.67;1.80;;;;;;;;;;5013739;28;20225;-60
2023/04/07 12:41:08;;;;;;;4.05;1.70;;;;;;;;;;5014358;28;20025;-60
2023/04/07 12:43:34;;;;;;;2.75;1.67;;;;;;;;;;5013473;28;20066;-60
2023/04/07 12:46:00;;;;;;;2.70;1.73;;;;;;;;;;5013867;28;20033;-59
2023/04/07 12:48:26;;;;;;;4.28;1.63;;;;;;;;;;5013606;28;20030;-60
2023/04/07 12:50:52;;;;;;;3.42;1.80;;;;;;;;;;5014044;28;20109;-60
2023/04/07 12:53:18;;;;;;;2.80;1.60;;;;;;;;;;5014273;28;20025;-60
2023/04/07 12:55:44;;;;;;;2.38;1.50;;;;;;;;;;5013518;28;20040;-60
2023/04/07 12:58:10;;;;;;;3.47;2.15;;;;;;;;;;5013643;28;20030;-60
2023/04/07 13:00:36;;;;;;;3.33;1.60;;;;;;;;;;5013632;28;20432;-60
2023/04/07 13:03:02;;;;;;;3.58;1.98;;;;;;;;;;5013760;28;20056;-59
2023/04/07 13:05:28;;;;;;;2.30;1.67;;;;;;;;;;5013605;28;20052;-60
2023/04/07 13:07:54;;;;;;;2.42;1.40;;;;;;;;;;5013747;28;20040;-59
2023/04/07 13:10:20;;;;;;;2.47;1.60;;;;;;;;;;5013894;28;20022;-59
2023/04/07 13:12:46;;;;;;;3.28;1.60;;;;;;;;;;5013193;28;20379;-60
2023/04/07 13:15:12;;;;;;;2.95;1.50;;;;;;;;;;5013535;28;20398;-60
2023/04/07 13:17:38;;;;;;;2.25;1.50;;;;;;;;;;5013195;28;20038;-60
2023/04/07 13:20:05;;;;;;;2.40;1.58;;;;;;;;;;5013633;28;20018;-61
2023/04/07 13:22:31;;;;;;;2.20;1.40;;;;;;;;;;5013269;28;20034;-59
2023/04/07 13:24:57;;;;;;;3.08;1.60;;;;;;;;;;5013368;28;20022;-60
2023/04/07 13:27:23;;;;;;;3.80;1.80;;;;;;;;;;5013033;28;20108;-59
2023/04/07 13:29:49;;;;;;;3.25;2.13;;;;;;;;;;5013649;28;20034;-59
2023/04/07 13:32:16;;;;;;;1.73;1.30;;;;;;;;;;5013131;28;20092;-59
2023/04/07 13:34:42;;;;;;;2.35;1.45;;;;;;;;;;5012967;28;20366;-59
2023/04/07 13:37:09;;;;;;;2.58;1.80;;;;;;;;;;5013048;28;20030;-60
2023/04/07 13:39:35;;;;;;;2.40;1.63;;;;;;;;;;5012808;28;20026;-60
2023/04/07 13:42:01;;;;;;;4.05;1.52;;;;;;;;;;5012949;28;20469;-59
2023/04/07 13:44:27;;;;;;;2.17;1.25;;;;;;;;;;5012787;28;20093;-59
2023/04/07 13:46:54;;;;;;;3.17;1.45;;;;;;;;;;5013003;28;20544;-59
2023/04/07 13:49:21;;;;;;;2.88;1.50;;;;;;;;;;4995858;28;20021;-59
2023/04/07 13:51:47;;;;;;;3.05;1.52;;;;;;;;;;5013152;28;20462;-60
2023/04/07 13:54:13;;;;;;;2.70;1.40;;;;;;;;;;5012859;28;20026;-59
2023/04/07 13:56:39;;;;;;;3.88;1.70;;;;;;;;;;5012399;28;20088;-60
2023/04/07 13:59:06;;;;;;;2.97;1.33;;;;;;;;;;5012681;28;20378;-59
2023/04/07 14:01:32;;;;;;;3.08;1.50;;;;;;;;;;5012359;28;20037;-59
2023/04/07 14:03:58;;;;;;;2.67;1.65;;;;;;;;;;5012683;28;20076;-59
2023/04/07 14:06:25;;;;;;;2.40;1.40;;;;;;;;;;5012449;28;20030;-59
2023/04/07 14:08:51;;;;;;;4.78;1.98;;;;;;;;;;5012714;28;20022;-59
2023/04/07 14:11:21;;;;;;;3.38;1.52;;;;;;;;;;5012838;28;20037;-60
2023/04/07 14:13:47;;;;;;;3.28;1.50;;;;;;;;;;5012751;28;20026;-59
2023/04/07 14:16:13;;;;;;;3.10;1.40;;;;;;;;;;5012252;28;20038;-60
2023/04/07 14:18:39;;;;;;;3.13;1.40;;;;;;;;;;5012226;28;20021;-60
2023/04/07 14:21:05;;;;;;;4.28;1.77;;;;;;;;;;5012314;28;20030;-59
2023/04/07 14:23:31;;;;;;;2.97;1.63;;;;;;;;;;5011754;28;20549;-59
2023/04/07 14:25:58;;;;;;;4.03;1.40;;;;;;;;;;5012234;28;20033;-59
2023/04/07 14:28:24;;;;;;;2.05;1.35;;;;;;;;;;5011747;28;20018;-60
2023/04/07 14:30:51;;;;;;;2.60;1.30;;;;;;;;;;5012464;28;20034;-60
2023/04/07 14:33:17;;;;;;;2.88;1.35;;;;;;;;;;5012405;28;20025;-60
2023/04/07 14:35:43;;;;;;;4.20;1.70;;;;;;;;;;5011775;28;20092;-59
2023/04/07 14:38:09;;;;;;;4.63;1.80;;;;;;;;;;5012020;28;20029;-59
2023/04/07 14:40:35;;;;;;;3.45;1.40;;;;;;;;;;5011884;28;20443;-59